sensor_id;sensor_type;location;lat;lon;timestamp;temperature;humidity
16728;DHT22;8482;54.396;18.590;2023-04-23T00:01:06;10.00;99.90
16728;DHT22;8482;54.396;18.590;2023-04-23T00:03:33;10.00;99.90
16728;DHT22;8482;54.396;18.590;2023-04-23T00:06:05;10.00;99.90
16728;DHT22;8482;54.396;18.590;2023-04-23T00:08:33;10.10;99.90
16728;DHT22;8482;54.396;18.590;2023-04-23T00:10:59;10.10;99.90
16728;DHT22;8482;54.396;18.590;2023-04-23T00:13:26;10.10;99.90
16728;DHT22;8482;54.396;18.590;2023-04-23T00:15:52;10.10;99.90
16728;DHT22;8482;54.396;18.590;2023-04-23T00:18:19;10.10;99.90
16728;DHT22;8482;54.396;18.590;2023-04-23T00:20:45;10.10;99.90
16728;DHT22;8482;54.396;18.590;2023-04-23T00:23:11;10.10;99.90
16728;DHT22;8482;54.396;18.590;2023-04-23T00:25:37;10.20;99.90
16728;DHT22;8482;54.396;18.590;2023-04-23T00:28:03;10.20;99.90
16728;DHT22;8482;54.396;18.590;2023-04-23T00:30:28;10.20;99.90
16728;DHT22;8482;54.396;18.590;2023-04-23T00:32:54;10.20;99.90
16728;DHT22;8482;54.396;18.590;2023-04-23T00:35:20;10.20;99.90
16728;DHT22;8482;54.396;18.590;2023-04-23T00:37:46;10.30;99.90
16728;DHT22;8482;54.396;18.590;2023-04-23T00:40:12;10.30;99.90
16728;DHT22;8482;54.396;18.590;2023-04-23T00:42:39;10.30;99.90
16728;DHT22;8482;54.396;18.590;2023-04-23T00:45:08;10.40;99.90
16728;DHT22;8482;54.396;18.590;2023-04-23T00:47:35;10.40;99.90
16728;DHT22;8482;54.396;18.590;2023-04-23T00:50:01;10.40;99.90
16728;DHT22;8482;54.396;18.590;2023-04-23T00:52:28;10.50;99.90
16728;DHT22;8482;54.396;18.590;2023-04-23T00:54:55;10.60;99.90
16728;DHT22;8482;54.396;18.590;2023-04-23T00:57:22;10.60;99.90
16728;DHT22;8482;54.396;18.590;2023-04-23T00:59:48;10.60;99.90
16728;DHT22;8482;54.396;18.590;2023-04-23T01:02:14;10.70;99.90
16728;DHT22;8482;54.396;18.590;2023-04-23T01:04:42;10.70;99.90
16728;DHT22;8482;54.396;18.590;2023-04-23T01:07:11;10.80;99.90
16728;DHT22;8482;54.396;18.590;2023-04-23T01:09:38;10.80;99.90
16728;DHT22;8482;54.396;18.590;2023-04-23T01:12:08;10.90;99.90
16728;DHT22;8482;54.396;18.590;2023-04-23T01:14:36;10.90;99.90
16728;DHT22;8482;54.396;18.590;2023-04-23T01:17:03;11.00;99.90
16728;DHT22;8482;54.396;18.590;2023-04-23T01:19:29;11.00;99.90
16728;DHT22;8482;54.396;18.590;2023-04-23T01:21:55;11.10;99.90
16728;DHT22;8482;54.396;18.590;2023-04-23T01:24:26;11.20;99.90
16728;DHT22;8482;54.396;18.590;2023-04-23T01:26:53;11.30;99.90
16728;DHT22;8482;54.396;18.590;2023-04-23T01:29:20;11.30;99.90
16728;DHT22;8482;54.396;18.590;2023-04-23T01:31:47;11.40;99.90
16728;DHT22;8482;54.396;18.590;2023-04-23T01:34:14;11.40;99.90
16728;DHT22;8482;54.396;18.590;2023-04-23T01:36:41;11.50;99.90
16728;DHT22;8482;54.396;18.590;2023-04-23T01:39:08;11.60;99.90
16728;DHT22;8482;54.396;18.590;2023-04-23T01:41:34;11.60;99.90
16728;DHT22;8482;54.396;18.590;2023-04-23T01:44:01;11.70;99.90
16728;DHT22;8482;54.396;18.590;2023-04-23T01:46:27;11.70;99.90
16728;DHT22;8482;54.396;18.590;2023-04-23T01:48:53;11.80;99.90
16728;DHT22;8482;54.396;18.590;2023-04-23T01:51:19;11.80;99.90
16728;DHT22;8482;54.396;18.590;2023-04-23T01:53:45;11.80;99.90
16728;DHT22;8482;54.396;18.590;2023-04-23T01:56:11;11.90;99.90
16728;DHT22;8482;54.396;18.590;2023-04-23T01:58:40;11.90;99.90
16728;DHT22;8482;54.396;18.590;2023-04-23T02:01:06;11.90;99.90
16728;DHT22;8482;54.396;18.590;2023-04-23T02:03:32;11.90;99.90
16728;DHT22;8482;54.396;18.590;2023-04-23T02:05:59;11.90;99.90
16728;DHT22;8482;54.396;18.590;2023-04-23T02:08:26;11.90;99.90
16728;DHT22;8482;54.396;18.590;2023-04-23T02:10:52;11.90;99.90
16728;DHT22;8482;54.396;18.590;2023-04-23T02:13:18;11.90;99.90
16728;DHT22;8482;54.396;18.590;2023-04-23T02:15:44;11.90;99.90
16728;DHT22;8482;54.396;18.590;2023-04-23T02:18:10;11.80;99.90
16728;DHT22;8482;54.396;18.590;2023-04-23T02:20:36;11.80;99.90
16728;DHT22;8482;54.396;18.590;2023-04-23T02:23:06;11.70;99.90
16728;DHT22;8482;54.396;18.590;2023-04-23T02:25:33;11.70;99.90
16728;DHT22;8482;54.396;18.590;2023-04-23T02:27:59;11.60;99.90
16728;DHT22;8482;54.396;18.590;2023-04-23T02:30:29;11.60;99.90
16728;DHT22;8482;54.396;18.590;2023-04-23T02:32:55;11.50;99.90
16728;DHT22;8482;54.396;18.590;2023-04-23T02:35:21;11.50;99.90
16728;DHT22;8482;54.396;18.590;2023-04-23T02:37:48;11.40;99.90
16728;DHT22;8482;54.396;18.590;2023-04-23T02:40:14;11.30;99.90
16728;DHT22;8482;54.396;18.590;2023-04-23T02:42:39;11.30;99.90
16728;DHT22;8482;54.396;18.590;2023-04-23T02:45:06;11.20;99.90
16728;DHT22;8482;54.396;18.590;2023-04-23T02:47:32;11.20;99.90
16728;DHT22;8482;54.396;18.590;2023-04-23T02:49:58;11.20;99.90
16728;DHT22;8482;54.396;18.590;2023-04-23T02:52:27;11.10;99.90
16728;DHT22;8482;54.396;18.590;2023-04-23T02:54:53;11.10;99.90
16728;DHT22;8482;54.396;18.590;2023-04-23T02:57:19;11.00;99.90
16728;DHT22;8482;54.396;18.590;2023-04-23T02:59:45;11.00;99.90
16728;DHT22;8482;54.396;18.590;2023-04-23T03:02:11;10.90;99.90
16728;DHT22;8482;54.396;18.590;2023-04-23T03:04:37;10.90;99.90
16728;DHT22;8482;54.396;18.590;2023-04-23T03:07:04;10.80;99.90
16728;DHT22;8482;54.396;18.590;2023-04-23T03:09:29;10.70;99.90
16728;DHT22;8482;54.396;18.590;2023-04-23T03:11:55;10.70;99.90
16728;DHT22;8482;54.396;18.590;2023-04-23T03:14:22;10.70;99.90
16728;DHT22;8482;54.396;18.590;2023-04-23T03:16:47;10.60;99.90
16728;DHT22;8482;54.396;18.590;2023-04-23T03:19:14;10.60;99.90
16728;DHT22;8482;54.396;18.590;2023-04-23T03:21:40;10.60;99.90
16728;DHT22;8482;54.396;18.590;2023-04-23T03:24:06;10.50;99.90
16728;DHT22;8482;54.396;18.590;2023-04-23T03:26:32;10.50;99.90
16728;DHT22;8482;54.396;18.590;2023-04-23T03:28:59;10.50;99.90
16728;DHT22;8482;54.396;18.590;2023-04-23T03:31:25;10.50;99.90
16728;DHT22;8482;54.396;18.590;2023-04-23T03:33:51;10.40;99.90
16728;DHT22;8482;54.396;18.590;2023-04-23T03:36:17;10.40;99.90
16728;DHT22;8482;54.396;18.590;2023-04-23T03:38:42;10.40;99.90
16728;DHT22;8482;54.396;18.590;2023-04-23T03:41:08;10.40;99.90
16728;DHT22;8482;54.396;18.590;2023-04-23T03:43:34;10.40;99.90
16728;DHT22;8482;54.396;18.590;2023-04-23T03:46:00;10.40;99.90
16728;DHT22;8482;54.396;18.590;2023-04-23T03:48:26;10.40;99.90
16728;DHT22;8482;54.396;18.590;2023-04-23T03:50:52;10.40;99.90
16728;DHT22;8482;54.396;18.590;2023-04-23T03:53:18;10.40;99.90
16728;DHT22;8482;54.396;18.590;2023-04-23T03:55:43;10.40;99.90
16728;DHT22;8482;54.396;18.590;2023-04-23T03:58:09;10.40;99.90
16728;DHT22;8482;54.396;18.590;2023-04-23T04:00:35;10.30;99.90
16728;DHT22;8482;54.396;18.590;2023-04-23T04:03:01;10.40;99.90
16728;DHT22;8482;54.396;18.590;2023-04-23T04:05:27;10.40;99.90
16728;DHT22;8482;54.396;18.590;2023-04-23T04:07:53;10.30;99.90
16728;DHT22;8482;54.396;18.590;2023-04-23T04:10:19;10.40;99.90
16728;DHT22;8482;54.396;18.590;2023-04-23T04:12:45;10.40;99.90
16728;DHT22;8482;54.396;18.590;2023-04-23T04:15:13;10.40;99.90
16728;DHT22;8482;54.396;18.590;2023-04-23T04:17:40;10.30;99.90
16728;DHT22;8482;54.396;18.590;2023-04-23T04:20:07;10.40;99.90
16728;DHT22;8482;54.396;18.590;2023-04-23T04:22:33;10.40;99.90
16728;DHT22;8482;54.396;18.590;2023-04-23T04:24:59;10.40;99.90
16728;DHT22;8482;54.396;18.590;2023-04-23T04:27:25;10.40;99.90
16728;DHT22;8482;54.396;18.590;2023-04-23T04:29:51;10.50;99.90
16728;DHT22;8482;54.396;18.590;2023-04-23T04:32:17;10.50;99.90
16728;DHT22;8482;54.396;18.590;2023-04-23T04:34:43;10.50;99.90
16728;DHT22;8482;54.396;18.590;2023-04-23T04:37:09;10.50;99.90
16728;DHT22;8482;54.396;18.590;2023-04-23T04:39:36;10.50;99.90
16728;DHT22;8482;54.396;18.590;2023-04-23T04:42:02;10.60;99.90
16728;DHT22;8482;54.396;18.590;2023-04-23T04:44:28;10.60;99.90
16728;DHT22;8482;54.396;18.590;2023-04-23T04:46:55;10.60;99.90
16728;DHT22;8482;54.396;18.590;2023-04-23T04:49:21;10.70;99.90
16728;DHT22;8482;54.396;18.590;2023-04-23T04:51:47;10.70;99.90
16728;DHT22;8482;54.396;18.590;2023-04-23T04:54:13;10.70;99.90
16728;DHT22;8482;54.396;18.590;2023-04-23T04:56:39;10.80;99.90
16728;DHT22;8482;54.396;18.590;2023-04-23T04:59:04;10.90;99.90
16728;DHT22;8482;54.396;18.590;2023-04-23T05:01:31;10.90;99.90
16728;DHT22;8482;54.396;18.590;2023-04-23T05:03:58;11.00;99.90
16728;DHT22;8482;54.396;18.590;2023-04-23T05:06:24;11.00;99.90
16728;DHT22;8482;54.396;18.590;2023-04-23T05:08:50;11.10;99.90
16728;DHT22;8482;54.396;18.590;2023-04-23T05:11:17;11.10;99.90
16728;DHT22;8482;54.396;18.590;2023-04-23T05:13:44;11.20;99.90
16728;DHT22;8482;54.396;18.590;2023-04-23T05:16:11;11.30;99.90
16728;DHT22;8482;54.396;18.590;2023-04-23T05:18:38;11.40;99.90
16728;DHT22;8482;54.396;18.590;2023-04-23T05:21:06;11.40;99.90
16728;DHT22;8482;54.396;18.590;2023-04-23T05:23:33;11.50;99.90
16728;DHT22;8482;54.396;18.590;2023-04-23T05:25:59;11.60;99.90
16728;DHT22;8482;54.396;18.590;2023-04-23T05:28:28;11.60;99.90
16728;DHT22;8482;54.396;18.590;2023-04-23T05:30:54;11.70;99.90
16728;DHT22;8482;54.396;18.590;2023-04-23T05:33:21;11.80;99.90
16728;DHT22;8482;54.396;18.590;2023-04-23T05:35:47;11.90;99.90
16728;DHT22;8482;54.396;18.590;2023-04-23T05:38:12;12.00;99.90
16728;DHT22;8482;54.396;18.590;2023-04-23T05:40:38;12.00;99.90
16728;DHT22;8482;54.396;18.590;2023-04-23T05:43:04;12.10;99.90
16728;DHT22;8482;54.396;18.590;2023-04-23T05:45:30;12.20;99.90
16728;DHT22;8482;54.396;18.590;2023-04-23T05:47:56;12.30;99.90
16728;DHT22;8482;54.396;18.590;2023-04-23T05:50:22;12.40;99.90
16728;DHT22;8482;54.396;18.590;2023-04-23T05:52:48;12.50;99.90
16728;DHT22;8482;54.396;18.590;2023-04-23T05:55:14;12.50;99.90
16728;DHT22;8482;54.396;18.590;2023-04-23T05:57:40;12.60;99.90
16728;DHT22;8482;54.396;18.590;2023-04-23T06:00:07;12.70;99.90
16728;DHT22;8482;54.396;18.590;2023-04-23T06:02:37;12.80;99.90
16728;DHT22;8482;54.396;18.590;2023-04-23T06:05:04;12.90;99.90
16728;DHT22;8482;54.396;18.590;2023-04-23T06:07:30;13.00;99.90
16728;DHT22;8482;54.396;18.590;2023-04-23T06:09:56;13.00;99.90
16728;DHT22;8482;54.396;18.590;2023-04-23T06:12:23;13.10;99.80
16728;DHT22;8482;54.396;18.590;2023-04-23T06:14:48;13.20;99.70
16728;DHT22;8482;54.396;18.590;2023-04-23T06:17:14;13.20;99.50
16728;DHT22;8482;54.396;18.590;2023-04-23T06:19:40;13.30;99.30
16728;DHT22;8482;54.396;18.590;2023-04-23T06:22:06;13.40;99.20
16728;DHT22;8482;54.396;18.590;2023-04-23T06:24:32;13.50;99.00
16728;DHT22;8482;54.396;18.590;2023-04-23T06:27:01;13.50;98.80
16728;DHT22;8482;54.396;18.590;2023-04-23T06:29:27;13.60;98.80
16728;DHT22;8482;54.396;18.590;2023-04-23T06:31:54;13.70;98.50
16728;DHT22;8482;54.396;18.590;2023-04-23T06:34:21;13.80;98.40
16728;DHT22;8482;54.396;18.590;2023-04-23T06:36:49;13.80;98.20
16728;DHT22;8482;54.396;18.590;2023-04-23T06:39:16;13.90;98.20
16728;DHT22;8482;54.396;18.590;2023-04-23T06:41:41;14.00;98.10
16728;DHT22;8482;54.396;18.590;2023-04-23T06:44:08;14.10;97.90
16728;DHT22;8482;54.396;18.590;2023-04-23T06:46:34;14.10;97.60
16728;DHT22;8482;54.396;18.590;2023-04-23T06:49:00;14.20;97.60
16728;DHT22;8482;54.396;18.590;2023-04-23T06:51:25;14.30;97.40
16728;DHT22;8482;54.396;18.590;2023-04-23T06:53:54;14.30;97.10
16728;DHT22;8482;54.396;18.590;2023-04-23T06:56:20;14.40;97.00
16728;DHT22;8482;54.396;18.590;2023-04-23T06:58:46;14.50;96.70
16728;DHT22;8482;54.396;18.590;2023-04-23T07:01:12;14.60;96.50
16728;DHT22;8482;54.396;18.590;2023-04-23T07:03:38;14.60;96.10
16728;DHT22;8482;54.396;18.590;2023-04-23T07:06:05;14.70;96.10
16728;DHT22;8482;54.396;18.590;2023-04-23T07:08:31;14.70;95.90
16728;DHT22;8482;54.396;18.590;2023-04-23T07:10:57;14.80;95.80
16728;DHT22;8482;54.396;18.590;2023-04-23T07:13:23;14.80;95.50
16728;DHT22;8482;54.396;18.590;2023-04-23T07:15:49;14.90;95.40
16728;DHT22;8482;54.396;18.590;2023-04-23T07:18:15;14.90;95.30
16728;DHT22;8482;54.396;18.590;2023-04-23T07:20:40;15.00;95.20
16728;DHT22;8482;54.396;18.590;2023-04-23T07:23:06;15.00;95.20
16728;DHT22;8482;54.396;18.590;2023-04-23T07:25:32;15.10;95.30
16728;DHT22;8482;54.396;18.590;2023-04-23T07:27:58;15.20;95.40
16728;DHT22;8482;54.396;18.590;2023-04-23T07:30:25;15.20;95.40
16728;DHT22;8482;54.396;18.590;2023-04-23T07:32:51;15.30;95.40
16728;DHT22;8482;54.396;18.590;2023-04-23T07:35:18;15.40;95.40
16728;DHT22;8482;54.396;18.590;2023-04-23T07:37:44;15.40;95.30
16728;DHT22;8482;54.396;18.590;2023-04-23T07:40:10;15.50;95.30
16728;DHT22;8482;54.396;18.590;2023-04-23T07:42:36;15.60;95.30
16728;DHT22;8482;54.396;18.590;2023-04-23T07:45:04;15.70;95.70
16728;DHT22;8482;54.396;18.590;2023-04-23T07:47:30;15.80;95.70
16728;DHT22;8482;54.396;18.590;2023-04-23T07:49:56;15.80;95.50
16728;DHT22;8482;54.396;18.590;2023-04-23T07:52:22;15.90;95.30
16728;DHT22;8482;54.396;18.590;2023-04-23T07:54:48;16.00;95.10
16728;DHT22;8482;54.396;18.590;2023-04-23T07:57:14;16.10;94.90
16728;DHT22;8482;54.396;18.590;2023-04-23T07:59:40;16.10;94.80
16728;DHT22;8482;54.396;18.590;2023-04-23T08:02:06;16.20;94.60
16728;DHT22;8482;54.396;18.590;2023-04-23T08:04:33;16.20;94.50
16728;DHT22;8482;54.396;18.590;2023-04-23T08:06:58;16.30;94.50
16728;DHT22;8482;54.396;18.590;2023-04-23T08:09:24;16.40;94.40
16728;DHT22;8482;54.396;18.590;2023-04-23T08:11:50;16.50;94.20
16728;DHT22;8482;54.396;18.590;2023-04-23T08:14:17;16.50;93.90
16728;DHT22;8482;54.396;18.590;2023-04-23T08:16:43;16.60;93.70
16728;DHT22;8482;54.396;18.590;2023-04-23T08:19:09;16.70;93.70
16728;DHT22;8482;54.396;18.590;2023-04-23T08:21:36;16.80;93.60
16728;DHT22;8482;54.396;18.590;2023-04-23T08:24:02;16.80;93.40
16728;DHT22;8482;54.396;18.590;2023-04-23T08:26:29;16.90;93.20
16728;DHT22;8482;54.396;18.590;2023-04-23T08:28:55;17.00;92.90
16728;DHT22;8482;54.396;18.590;2023-04-23T08:31:21;17.10;92.50
16728;DHT22;8482;54.396;18.590;2023-04-23T08:33:47;17.20;92.00
16728;DHT22;8482;54.396;18.590;2023-04-23T08:36:13;17.30;91.30
16728;DHT22;8482;54.396;18.590;2023-04-23T08:38:40;17.40;91.00
16728;DHT22;8482;54.396;18.590;2023-04-23T08:41:09;17.40;90.50
16728;DHT22;8482;54.396;18.590;2023-04-23T08:43:45;17.50;90.30
16728;DHT22;8482;54.396;18.590;2023-04-23T08:46:17;17.60;90.20
16728;DHT22;8482;54.396;18.590;2023-04-23T08:48:44;17.70;90.00
16728;DHT22;8482;54.396;18.590;2023-04-23T08:51:16;17.80;90.10
16728;DHT22;8482;54.396;18.590;2023-04-23T08:53:44;17.90;90.30
16728;DHT22;8482;54.396;18.590;2023-04-23T08:56:15;18.00;90.40
16728;DHT22;8482;54.396;18.590;2023-04-23T08:58:42;18.10;90.50
16728;DHT22;8482;54.396;18.590;2023-04-23T09:01:10;18.20;90.30
16728;DHT22;8482;54.396;18.590;2023-04-23T09:03:36;18.30;90.20
16728;DHT22;8482;54.396;18.590;2023-04-23T09:06:04;18.40;89.80
16728;DHT22;8482;54.396;18.590;2023-04-23T09:08:31;18.50;88.50
16728;DHT22;8482;54.396;18.590;2023-04-23T09:11:00;18.60;87.60
16728;DHT22;8482;54.396;18.590;2023-04-23T09:13:28;18.70;86.80
16728;DHT22;8482;54.396;18.590;2023-04-23T09:15:56;18.80;86.50
16728;DHT22;8482;54.396;18.590;2023-04-23T09:18:22;19.00;86.00
16728;DHT22;8482;54.396;18.590;2023-04-23T09:20:48;19.00;86.00
16728;DHT22;8482;54.396;18.590;2023-04-23T09:23:15;19.10;85.00
16728;DHT22;8482;54.396;18.590;2023-04-23T09:25:41;19.20;85.10
16728;DHT22;8482;54.396;18.590;2023-04-23T09:28:08;19.30;84.30
16728;DHT22;8482;54.396;18.590;2023-04-23T09:30:42;19.40;84.60
16728;DHT22;8482;54.396;18.590;2023-04-23T09:33:12;19.50;84.30
16728;DHT22;8482;54.396;18.590;2023-04-23T09:35:40;19.60;83.10
16728;DHT22;8482;54.396;18.590;2023-04-23T09:38:08;19.70;82.70
16728;DHT22;8482;54.396;18.590;2023-04-23T09:40:35;19.80;82.50
16728;DHT22;8482;54.396;18.590;2023-04-23T09:43:03;19.90;81.70
16728;DHT22;8482;54.396;18.590;2023-04-23T09:45:30;20.00;80.80
16728;DHT22;8482;54.396;18.590;2023-04-23T09:47:57;20.00;79.20
16728;DHT22;8482;54.396;18.590;2023-04-23T09:50:37;20.10;78.20
16728;DHT22;8482;54.396;18.590;2023-04-23T09:53:05;20.20;77.50
16728;DHT22;8482;54.396;18.590;2023-04-23T09:55:37;20.30;77.00
16728;DHT22;8482;54.396;18.590;2023-04-23T09:58:05;20.40;75.80
16728;DHT22;8482;54.396;18.590;2023-04-23T10:00:36;20.40;75.90
16728;DHT22;8482;54.396;18.590;2023-04-23T10:03:05;20.60;75.90
16728;DHT22;8482;54.396;18.590;2023-04-23T10:05:40;20.70;75.40
16728;DHT22;8482;54.396;18.590;2023-04-23T10:08:07;20.80;74.50
16728;DHT22;8482;54.396;18.590;2023-04-23T10:10:33;20.90;72.70
16728;DHT22;8482;54.396;18.590;2023-04-23T10:13:01;20.90;72.10
16728;DHT22;8482;54.396;18.590;2023-04-23T10:15:27;21.10;72.20
16728;DHT22;8482;54.396;18.590;2023-04-23T10:17:53;21.10;71.90
16728;DHT22;8482;54.396;18.590;2023-04-23T10:20:24;21.20;71.50
16728;DHT22;8482;54.396;18.590;2023-04-23T10:22:52;21.30;71.00
16728;DHT22;8482;54.396;18.590;2023-04-23T10:25:24;21.40;70.20
16728;DHT22;8482;54.396;18.590;2023-04-23T10:27:51;21.50;69.40
16728;DHT22;8482;54.396;18.590;2023-04-23T10:30:21;21.60;68.20
16728;DHT22;8482;54.396;18.590;2023-04-23T10:32:48;21.70;68.00
16728;DHT22;8482;54.396;18.590;2023-04-23T10:35:14;21.80;68.40
16728;DHT22;8482;54.396;18.590;2023-04-23T10:37:45;21.80;67.60
16728;DHT22;8482;54.396;18.590;2023-04-23T10:40:14;21.90;67.40
16728;DHT22;8482;54.396;18.590;2023-04-23T10:42:46;21.90;66.70
16728;DHT22;8482;54.396;18.590;2023-04-23T10:45:15;22.00;66.20
16728;DHT22;8482;54.396;18.590;2023-04-23T10:47:43;22.10;65.80
16728;DHT22;8482;54.396;18.590;2023-04-23T10:50:28;22.20;65.90
16728;DHT22;8482;54.396;18.590;2023-04-23T10:53:01;22.30;65.70
16728;DHT22;8482;54.396;18.590;2023-04-23T10:55:29;22.40;64.40
16728;DHT22;8482;54.396;18.590;2023-04-23T10:58:04;22.40;63.40
16728;DHT22;8482;54.396;18.590;2023-04-23T11:00:43;22.50;63.30
16728;DHT22;8482;54.396;18.590;2023-04-23T11:03:38;22.60;63.40
16728;DHT22;8482;54.396;18.590;2023-04-23T11:06:07;22.70;63.50
16728;DHT22;8482;54.396;18.590;2023-04-23T11:08:37;22.70;64.00
16728;DHT22;8482;54.396;18.590;2023-04-23T11:11:15;22.90;63.60
16728;DHT22;8482;54.396;18.590;2023-04-23T11:13:50;23.00;62.90
16728;DHT22;8482;54.396;18.590;2023-04-23T11:16:21;23.00;62.30
16728;DHT22;8482;54.396;18.590;2023-04-23T11:19:03;23.10;61.50
16728;DHT22;8482;54.396;18.590;2023-04-23T11:22:01;23.20;60.90
16728;DHT22;8482;54.396;18.590;2023-04-23T11:24:36;23.30;60.10
16728;DHT22;8482;54.396;18.590;2023-04-23T11:27:12;23.40;59.00
16728;DHT22;8482;54.396;18.590;2023-04-23T11:29:41;23.50;58.80
16728;DHT22;8482;54.396;18.590;2023-04-23T11:32:09;23.60;58.00
16728;DHT22;8482;54.396;18.590;2023-04-23T11:34:41;23.60;58.10
16728;DHT22;8482;54.396;18.590;2023-04-23T11:37:09;23.70;58.30
16728;DHT22;8482;54.396;18.590;2023-04-23T11:39:37;23.80;58.10
16728;DHT22;8482;54.396;18.590;2023-04-23T11:42:15;23.90;57.60
16728;DHT22;8482;54.396;18.590;2023-04-23T11:44:43;24.00;57.00
16728;DHT22;8482;54.396;18.590;2023-04-23T11:47:11;24.20;55.80
16728;DHT22;8482;54.396;18.590;2023-04-23T11:49:40;24.30;54.40
16728;DHT22;8482;54.396;18.590;2023-04-23T11:52:08;24.30;53.00
16728;DHT22;8482;54.396;18.590;2023-04-23T11:54:34;24.50;52.50
16728;DHT22;8482;54.396;18.590;2023-04-23T11:57:01;24.50;51.80
16728;DHT22;8482;54.396;18.590;2023-04-23T11:59:29;24.60;51.20
16728;DHT22;8482;54.396;18.590;2023-04-23T12:01:57;24.70;51.00
16728;DHT22;8482;54.396;18.590;2023-04-23T12:04:26;24.70;50.50
16728;DHT22;8482;54.396;18.590;2023-04-23T12:06:54;24.80;50.10
16728;DHT22;8482;54.396;18.590;2023-04-23T12:09:23;24.90;50.00
16728;DHT22;8482;54.396;18.590;2023-04-23T12:11:53;25.00;49.90
16728;DHT22;8482;54.396;18.590;2023-04-23T12:14:28;25.10;49.70
16728;DHT22;8482;54.396;18.590;2023-04-23T12:16:55;25.20;49.70
16728;DHT22;8482;54.396;18.590;2023-04-23T12:19:29;25.40;49.60
16728;DHT22;8482;54.396;18.590;2023-04-23T12:21:57;25.40;49.20
16728;DHT22;8482;54.396;18.590;2023-04-23T12:24:44;25.50;48.80
16728;DHT22;8482;54.396;18.590;2023-04-23T12:27:14;25.50;49.00
16728;DHT22;8482;54.396;18.590;2023-04-23T12:29:41;25.70;49.20
16728;DHT22;8482;54.396;18.590;2023-04-23T12:32:10;25.80;49.40
16728;DHT22;8482;54.396;18.590;2023-04-23T12:34:36;25.80;49.10
16728;DHT22;8482;54.396;18.590;2023-04-23T12:37:05;25.90;49.00
16728;DHT22;8482;54.396;18.590;2023-04-23T12:39:34;26.00;49.20
16728;DHT22;8482;54.396;18.590;2023-04-23T12:42:06;26.10;49.30
16728;DHT22;8482;54.396;18.590;2023-04-23T12:44:36;26.10;49.40
16728;DHT22;8482;54.396;18.590;2023-04-23T12:47:04;26.20;49.50
16728;DHT22;8482;54.396;18.590;2023-04-23T12:49:45;26.30;49.70
16728;DHT22;8482;54.396;18.590;2023-04-23T12:52:17;26.40;49.10
16728;DHT22;8482;54.396;18.590;2023-04-23T12:54:44;26.40;48.80
16728;DHT22;8482;54.396;18.590;2023-04-23T12:57:11;26.50;48.80
16728;DHT22;8482;54.396;18.590;2023-04-23T12:59:39;26.60;48.60
16728;DHT22;8482;54.396;18.590;2023-04-23T13:02:06;26.80;48.60
16728;DHT22;8482;54.396;18.590;2023-04-23T13:04:34;26.80;48.40
16728;DHT22;8482;54.396;18.590;2023-04-23T13:07:02;26.90;48.10
16728;DHT22;8482;54.396;18.590;2023-04-23T13:09:29;26.90;47.50
16728;DHT22;8482;54.396;18.590;2023-04-23T13:11:56;27.00;47.90
16728;DHT22;8482;54.396;18.590;2023-04-23T13:14:24;27.10;48.10
16728;DHT22;8482;54.396;18.590;2023-04-23T13:16:53;27.20;48.00
16728;DHT22;8482;54.396;18.590;2023-04-23T13:19:21;27.30;47.40
16728;DHT22;8482;54.396;18.590;2023-04-23T13:21:48;27.40;47.30
16728;DHT22;8482;54.396;18.590;2023-04-23T13:24:15;27.50;47.00
16728;DHT22;8482;54.396;18.590;2023-04-23T13:26:43;27.60;46.10
16728;DHT22;8482;54.396;18.590;2023-04-23T13:29:10;27.70;45.50
16728;DHT22;8482;54.396;18.590;2023-04-23T13:31:37;27.70;45.80
16728;DHT22;8482;54.396;18.590;2023-04-23T13:34:04;27.80;45.90
16728;DHT22;8482;54.396;18.590;2023-04-23T13:36:32;27.90;46.30
16728;DHT22;8482;54.396;18.590;2023-04-23T13:38:59;28.10;46.50
16728;DHT22;8482;54.396;18.590;2023-04-23T13:41:26;28.20;46.50
16728;DHT22;8482;54.396;18.590;2023-04-23T13:43:54;28.30;46.30
16728;DHT22;8482;54.396;18.590;2023-04-23T13:46:23;28.50;45.70
16728;DHT22;8482;54.396;18.590;2023-04-23T13:48:52;28.60;44.80
16728;DHT22;8482;54.396;18.590;2023-04-23T13:51:19;28.60;44.70
16728;DHT22;8482;54.396;18.590;2023-04-23T13:53:46;28.80;44.80
16728;DHT22;8482;54.396;18.590;2023-04-23T13:56:12;28.80;44.70
16728;DHT22;8482;54.396;18.590;2023-04-23T13:58:40;28.90;44.50
16728;DHT22;8482;54.396;18.590;2023-04-23T14:01:07;29.00;44.30
16728;DHT22;8482;54.396;18.590;2023-04-23T14:03:36;29.20;44.30
16728;DHT22;8482;54.396;18.590;2023-04-23T14:06:01;29.30;44.10
16728;DHT22;8482;54.396;18.590;2023-04-23T14:08:27;29.40;43.90
16728;DHT22;8482;54.396;18.590;2023-04-23T14:10:53;29.50;43.70
16728;DHT22;8482;54.396;18.590;2023-04-23T14:13:19;29.60;43.00
16728;DHT22;8482;54.396;18.590;2023-04-23T14:15:45;29.70;42.70
16728;DHT22;8482;54.396;18.590;2023-04-23T14:18:11;29.90;43.30
16728;DHT22;8482;54.396;18.590;2023-04-23T14:20:36;30.10;42.60
16728;DHT22;8482;54.396;18.590;2023-04-23T14:23:26;30.20;42.00
16728;DHT22;8482;54.396;18.590;2023-04-23T14:26:09;30.30;41.80
16728;DHT22;8482;54.396;18.590;2023-04-23T14:28:45;30.50;42.60
16728;DHT22;8482;54.396;18.590;2023-04-23T14:31:15;30.70;42.30
16728;DHT22;8482;54.396;18.590;2023-04-23T14:33:40;30.80;42.20
16728;DHT22;8482;54.396;18.590;2023-04-23T14:36:06;30.90;42.00
16728;DHT22;8482;54.396;18.590;2023-04-23T14:38:32;31.10;41.80
16728;DHT22;8482;54.396;18.590;2023-04-23T14:40:59;31.20;41.80
16728;DHT22;8482;54.396;18.590;2023-04-23T14:43:24;31.30;41.80
16728;DHT22;8482;54.396;18.590;2023-04-23T14:45:50;31.50;42.20
16728;DHT22;8482;54.396;18.590;2023-04-23T14:48:16;31.60;42.50
16728;DHT22;8482;54.396;18.590;2023-04-23T14:50:42;31.70;42.00
16728;DHT22;8482;54.396;18.590;2023-04-23T14:53:08;31.80;41.50
16728;DHT22;8482;54.396;18.590;2023-04-23T14:55:35;31.90;41.40
16728;DHT22;8482;54.396;18.590;2023-04-23T14:58:01;31.90;40.60
16728;DHT22;8482;54.396;18.590;2023-04-23T15:00:27;32.00;40.40
16728;DHT22;8482;54.396;18.590;2023-04-23T15:02:53;31.90;40.20
16728;DHT22;8482;54.396;18.590;2023-04-23T15:05:18;31.90;40.70
16728;DHT22;8482;54.396;18.590;2023-04-23T15:07:45;32.00;41.10
16728;DHT22;8482;54.396;18.590;2023-04-23T15:10:11;32.00;41.30
16728;DHT22;8482;54.396;18.590;2023-04-23T15:15:41;31.90;41.50
16728;DHT22;8482;54.396;18.590;2023-04-23T15:18:13;31.60;42.20
16728;DHT22;8482;54.396;18.590;2023-04-23T15:20:40;31.40;42.50
16728;DHT22;8482;54.396;18.590;2023-04-23T15:23:06;31.30;42.80
16728;DHT22;8482;54.396;18.590;2023-04-23T15:25:33;31.10;43.00
16728;DHT22;8482;54.396;18.590;2023-04-23T15:28:00;31.00;43.50
16728;DHT22;8482;54.396;18.590;2023-04-23T15:30:27;30.80;43.10
16728;DHT22;8482;54.396;18.590;2023-04-23T15:32:54;30.60;43.30
16728;DHT22;8482;54.396;18.590;2023-04-23T15:35:24;30.40;42.70